Time;durP1;ratioP1;P1;durP2;ratioP2;P2;SDS_P1;SDS_P2;PMS_P1;PMS_P2;Temp;Humidity;BMP_temperature;BMP_pressure;BME280_temperature;BME280_humidity;BME280_pressure;Samples;Min_cycle;Max_cycle;Signal;HPM_P1;HPM_P2
2023/01/16 00:01:51;;;;;;;5.70;3.20;;;;;;;2.29;100.00;98531.38;5074566;28;20039;-79
2023/01/16 00:04:16;;;;;;;5.53;3.63;;;;;;;2.27;100.00;98535.72;5072572;28;20013;-79
2023/01/16 00:06:42;;;;;;;6.00;3.40;;;;;;;2.20;100.00;98527.38;5074272;28;20082;-79
2023/01/16 00:09:07;;;;;;;7.45;4.80;;;;;;;2.17;100.00;98527.44;5074248;28;20021;-79
2023/01/16 00:11:33;;;;;;;6.20;3.97;;;;;;;2.16;100.00;98525.78;5071475;28;20052;-79
2023/01/16 00:13:59;;;;;;;7.70;4.13;;;;;;;2.19;100.00;98529.09;5074116;28;20119;-79
2023/01/16 00:16:25;;;;;;;8.45;4.18;;;;;;;2.15;100.00;98522.38;5073773;28;20016;-79
2023/01/16 00:18:50;;;;;;;6.85;4.43;;;;;;;2.20;100.00;98530.78;5073855;28;20028;-79
2023/01/16 00:21:17;;;;;;;8.60;4.93;;;;;;;2.23;100.00;98543.53;5073256;28;20020;-79
2023/01/16 00:23:42;;;;;;;8.88;4.82;;;;;;;2.21;100.00;98532.44;5073853;28;20451;-79
2023/01/16 00:26:09;;;;;;;7.15;4.18;;;;;;;2.15;100.00;98527.50;5073950;28;20021;-79
2023/01/16 00:28:37;;;;;;;7.07;3.75;;;;;;;2.10;100.00;98513.94;5073635;28;20016;-78
2023/01/16 00:31:02;;;;;;;9.57;4.60;;;;;;;2.12;100.00;98517.31;5073197;28;20059;-79
2023/01/16 00:33:28;;;;;;;8.68;4.72;;;;;;;2.14;100.00;98519.84;5072915;28;20093;-80
2023/01/16 00:35:53;;;;;;;7.90;4.93;;;;;;;2.16;100.00;98521.47;5072670;28;20073;-80
2023/01/16 00:38:18;;;;;;;6.65;4.45;;;;;;;2.12;100.00;98513.91;5072125;28;20024;-80
2023/01/16 00:40:44;;;;;;;11.60;6.97;;;;;;;2.15;100.00;98517.22;5073394;28;20023;-80
2023/01/16 00:43:09;;;;;;;9.82;5.65;;;;;;;2.17;100.00;98525.72;5073279;28;20025;-79
2023/01/16 00:45:35;;;;;;;12.80;5.88;;;;;;;2.18;100.00;98526.56;5073201;28;20105;-79
2023/01/16 00:48:00;;;;;;;10.98;5.13;;;;;;;2.14;100.00;98512.97;5073202;28;20027;-79
2023/01/16 00:50:26;;;;;;;11.65;6.47;;;;;;;2.16;100.00;98520.63;5073329;28;20027;-80
2023/01/16 00:52:51;;;;;;;12.57;5.90;;;;;;;2.17;100.00;98524.88;5072853;28;20028;-79
2023/01/16 00:55:16;;;;;;;6.00;3.53;;;;;;;2.23;100.00;98538.38;5073028;28;20059;-79
2023/01/16 00:57:42;;;;;;;6.88;3.80;;;;;;;2.24;99.86;98523.81;5073041;28;20073;-79
2023/01/16 01:00:08;;;;;;;7.25;4.15;;;;;;;2.27;99.87;98526.25;5073153;28;20023;-80
2023/01/16 01:02:33;;;;;;;6.65;3.50;;;;;;;2.30;99.30;98536.47;5072837;28;20103;-80
2023/01/16 01:04:58;;;;;;;9.25;3.75;;;;;;;2.22;99.54;98523.00;5073130;28;20124;-79
2023/01/16 01:07:24;;;;;;;5.40;3.22;;;;;;;2.19;99.83;98521.38;5073122;28;20024;-79
2023/01/16 01:09:49;;;;;;;7.13;3.38;;;;;;;2.18;99.70;98529.97;5072996;28;20036;-79
2023/01/16 01:12:15;;;;;;;7.10;3.50;;;;;;;2.14;99.71;98524.97;5072930;28;20062;-79
2023/01/16 01:14:40;;;;;;;5.85;3.35;;;;;;;2.16;99.74;98528.34;5072705;28;20024;-79
2023/01/16 01:17:05;;;;;;;7.93;4.35;;;;;;;2.12;100.00;98522.44;5072622;28;20048;-80
2023/01/16 01:19:31;;;;;;;9.70;5.38;;;;;;;2.05;100.00;98508.09;5072343;28;20035;-79
2023/01/16 01:21:56;;;;;;;10.60;5.28;;;;;;;2.00;100.00;98497.97;5072837;28;20078;-79
2023/01/16 01:24:21;;;;;;;7.90;4.75;;;;;;;2.11;100.00;98517.38;5072497;28;20029;-79
2023/01/16 01:26:47;;;;;;;7.78;4.78;;;;;;;2.09;100.00;98507.13;5072947;28;20066;-79
2023/01/16 01:29:12;;;;;;;7.10;3.90;;;;;;;2.03;100.00;98498.78;5072831;28;20028;-79
2023/01/16 01:31:37;;;;;;;6.80;3.70;;;;;;;2.09;100.00;98511.44;5070956;28;20070;-79
2023/01/16 01:34:02;;;;;;;6.88;3.83;;;;;;;2.07;100.00;98500.38;5072244;28;20021;-79
2023/01/16 01:36:28;;;;;;;6.45;3.88;;;;;;;2.03;100.00;98491.91;5072105;28;20041;-79
2023/01/16 01:38:53;;;;;;;4.85;3.40;;;;;;;2.08;100.00;98497.75;5072455;28;20059;-79
2023/01/16 01:41:19;;;;;;;5.45;3.75;;;;;;;1.95;100.00;98463.91;5072482;28;20024;-79
2023/01/16 01:43:50;;;;;;;8.82;4.90;;;;;;;2.07;100.00;98490.94;5070776;28;20013;-79
2023/01/16 01:46:21;;;;;;;9.52;4.95;;;;;;;2.02;100.00;98473.97;5072166;28;20455;-79
2023/01/16 01:48:50;;;;;;;4.85;3.95;;;;;;;2.04;100.00;98480.75;5072064;28;20506;-79
2023/01/16 01:51:23;;;;;;;6.43;4.07;;;;;;;2.09;100.00;98478.03;5071064;28;20030;-79
2023/01/16 01:53:52;;;;;;;6.25;4.20;;;;;;;2.09;100.00;98470.34;5072514;28;20055;-79
2023/01/16 01:56:39;;;;;;;4.70;3.85;;;;;;;2.09;100.00;98476.31;5072115;28;20456;-79
2023/01/16 01:59:14;;;;;;;4.43;3.28;;;;;;;2.05;100.00;98463.63;5072386;28;20503;-79
2023/01/16 02:01:39;;;;;;;6.03;3.90;;;;;;;2.04;100.00;98460.22;5072027;28;20069;-79
2023/01/16 02:04:12;;;;;;;9.25;3.50;;;;;;;1.99;100.00;98451.81;5071997;28;20017;-78
2023/01/16 02:06:47;;;;;;;6.95;4.07;;;;;;;2.03;100.00;98458.53;5072134;28;20035;-79
2023/01/16 02:09:14;;;;;;;6.03;3.50;;;;;;;1.94;100.00;98444.25;5072070;28;20028;-79
2023/01/16 02:11:53;;;;;;;5.63;3.70;;;;;;;1.98;100.00;98455.25;5071650;28;20032;-78
2023/01/16 02:14:18;;;;;;;5.95;3.72;;;;;;;1.88;100.00;98441.88;5072334;28;20077;-79
2023/01/16 02:19:36;;;;;;;6.95;3.45;;;;;;;1.89;100.00;98448.66;5071823;28;20080;-79
2023/01/16 02:22:14;;;;;;;6.50;3.70;;;;;;;1.87;100.00;98442.75;5071760;28;20453;-80
2023/01/16 02:24:42;;;;;;;5.30;3.75;;;;;;;1.91;100.00;98454.63;5072103;28;20106;-79
2023/01/16 02:27:20;;;;;;;7.18;4.60;;;;;;;1.90;100.00;98462.38;5072056;28;20048;-79
2023/01/16 02:30:16;;;;;;;7.97;4.20;;;;;;;1.86;100.00;98451.34;5071609;28;20025;-79
2023/01/16 02:33:01;;;;;;;11.65;6.05;;;;;;;1.78;100.00;98437.06;5071550;28;20177;-80
2023/01/16 02:35:36;;;;;;;8.85;5.28;;;;;;;1.83;100.00;98458.31;5060554;28;20021;-80
2023/01/16 02:38:26;;;;;;;10.40;6.25;;;;;;;1.76;100.00;98449.94;5055774;28;20079;-80
2023/01/16 02:41:02;;;;;;;7.95;4.93;;;;;;;1.74;100.00;98452.56;5054425;28;20416;-80
2023/01/16 02:43:32;;;;;;;5.68;4.07;;;;;;;1.71;100.00;98444.09;5054151;28;20028;-80
2023/01/16 02:46:01;;;;;;;5.80;4.75;;;;;;;1.74;100.00;98449.16;5055649;28;20020;-80
2023/01/16 02:48:45;;;;;;;8.38;4.65;;;;;;;1.68;100.00;98445.03;5055441;28;20036;-80
2023/01/16 02:51:27;;;;;;;7.30;3.63;;;;;;;1.67;100.00;98455.34;5055446;28;20485;-80
2023/01/16 02:53:55;;;;;;;4.70;3.30;;;;;;;1.63;100.00;98444.34;5055625;28;20025;-80
2023/01/16 02:56:38;;;;;;;6.28;4.30;;;;;;;1.60;100.00;98446.13;5055642;28;20048;-80
2023/01/16 02:59:04;;;;;;;6.40;4.25;;;;;;;1.53;100.00;98434.41;5072691;28;20123;-80
2023/01/16 03:01:34;;;;;;;5.45;4.10;;;;;;;1.49;100.00;98431.91;5072617;28;20127;-80
2023/01/16 03:03:59;;;;;;;6.50;3.90;;;;;;;1.52;100.00;98436.13;5072991;28;20036;-80
2023/01/16 03:06:54;;;;;;;6.07;3.65;;;;;;;1.49;100.00;98431.06;5072911;28;20419;-80
2023/01/16 03:09:32;;;;;;;4.68;3.35;;;;;;;1.49;100.00;98426.78;5056137;28;20476;-80
2023/01/16 03:12:15;;;;;;;5.50;3.28;;;;;;;1.49;100.00;98423.38;5072786;28;20024;-80
2023/01/16 03:14:56;;;;;;;6.20;2.97;;;;;;;1.47;100.00;98428.53;5072473;28;20048;-79
2023/01/16 03:17:21;;;;;;;;;;;;;;;1.46;100.00;98423.47;5073084;28;20031;-80
2023/01/16 03:20:25;;;;;;;6.82;3.40;;;;;;;1.40;100.00;98416.78;5072101;28;19908;-80
2023/01/16 03:23:19;;;;;;;5.95;3.35;;;;;;;1.40;100.00;98413.41;5072314;28;20021;-80
2023/01/16 03:26:00;;;;;;;6.47;3.40;;;;;;;1.29;100.00;98402.59;5012336;28;20033;-80
2023/01/16 03:28:51;;;;;;;4.07;3.03;;;;;;;1.40;100.00;98406.53;5013050;28;20120;-80
2023/01/16 03:31:35;;;;;;;;;;;;;;;1.41;100.00;98408.22;4935704;29;20380;-80
2023/01/16 03:34:22;;;;;;;5.25;3.17;;;;;;;1.38;100.00;98400.59;4935262;29;20011;-80
2023/01/16 03:36:55;;;;;;;9.60;3.40;;;;;;;1.38;100.00;98392.91;4934533;29;20058;-80
2023/01/16 03:39:27;;;;;;;5.82;3.38;;;;;;;1.34;100.00;98388.75;4935040;29;20038;-80
2023/01/16 03:41:57;;;;;;;7.15;3.50;;;;;;;1.36;100.00;98386.16;4934993;29;20124;-80
2023/01/16 03:44:29;;;;;;;6.67;3.40;;;;;;;1.41;100.00;98395.38;4934997;29;20032;-79
2023/01/16 03:46:56;;;;;;;10.45;3.80;;;;;;;1.47;100.00;98400.31;4934626;29;20035;-80
2023/01/16 03:49:54;;;;;;;6.32;3.58;;;;;;;1.47;100.00;98395.19;4934753;29;20043;-80
2023/01/16 03:52:24;;;;;;;6.72;4.90;;;;;;;1.45;100.00;98385.88;4934751;29;20039;-79
2023/01/16 03:55:04;;;;;;;22.23;15.93;;;;;;;1.46;100.00;98397.81;4934703;29;20051;-79
2023/01/16 03:57:34;;;;;;;12.35;7.85;;;;;;;1.43;100.00;98391.06;4934588;29;20075;-79
2023/01/16 04:00:01;;;;;;;77.25;44.15;;;;;;;1.46;100.00;98397.81;4934674;29;20543;-82
2023/01/16 04:02:34;;;;;;;27.17;17.38;;;;;;;1.40;100.00;98388.56;4975307;28;20029;-80
2023/01/16 04:05:16;;;;;;;9.18;5.88;;;;;;;1.36;100.00;98383.59;5011619;28;20034;-83
2023/01/16 04:07:51;;;;;;;35.15;18.17;;;;;;;1.35;100.00;98387.88;5022493;28;20127;-81
2023/01/16 04:10:22;;;;;;;31.20;15.13;;;;;;;1.34;100.00;98386.19;5051414;28;20047;-80
2023/01/16 04:12:50;;;;;;;;;;;;;;;1.33;100.00;98388.81;5051778;28;20175;-83
2023/01/16 04:15:18;;;;;;;13.65;7.93;;;;;;;1.21;100.00;98383.13;5034655;28;19905;-82
2023/01/16 04:17:43;;;;;;;8.98;6.13;;;;;;;1.14;100.00;98378.25;5051093;28;20029;-81
2023/01/16 04:20:10;;;;;;;9.45;6.25;;;;;;;1.12;100.00;98372.31;5051391;28;20024;-82
2023/01/16 04:22:36;;;;;;;9.15;6.53;;;;;;;1.09;100.00;98386.06;5034360;28;20465;-82
2023/01/16 04:25:05;;;;;;;27.25;19.85;;;;;;;1.11;100.00;98380.91;5051368;28;20025;-81
2023/01/16 04:27:31;;;;;;;17.02;12.82;;;;;;;1.12;100.00;98383.41;5051784;28;20112;-81
2023/01/16 04:29:56;;;;;;;9.23;6.40;;;;;;;1.10;100.00;98387.75;5073754;28;20039;-79
2023/01/16 04:32:21;;;;;;;14.82;9.98;;;;;;;1.05;100.00;98379.31;5073646;28;20448;-82
2023/01/16 04:34:47;;;;;;;22.65;12.13;;;;;;;0.93;100.00;98352.34;5073331;28;20017;-81
2023/01/16 04:37:14;;;;;;;35.38;19.80;;;;;;;1.05;100.00;98368.22;5073682;28;20052;-80
2023/01/16 04:39:40;;;;;;;41.47;17.40;;;;;;;0.91;100.00;98341.28;5073081;28;20042;-82
2023/01/16 04:42:06;;;;;;;32.30;15.52;;;;;;;1.07;100.00;98366.47;5073689;28;20020;-83
2023/01/16 04:44:32;;;;;;;31.42;12.13;;;;;;;1.09;100.00;98364.69;5073496;28;20027;-80
2023/01/16 04:46:57;;;;;;;31.42;13.65;;;;;;;1.00;100.00;98350.41;5073306;28;20468;-80
2023/01/16 04:49:22;;;;;;;34.75;13.02;;;;;;;1.03;100.00;98347.78;5073220;28;20487;-82
2023/01/16 04:51:48;;;;;;;28.30;11.73;;;;;;;1.06;100.00;98344.28;5072800;28;20036;-82
2023/01/16 04:54:16;;;;;;;15.55;6.10;;;;;;;1.04;100.00;98344.31;5072908;28;20024;-84
2023/01/16 04:56:41;;;;;;;11.13;6.88;;;;;;;1.08;100.00;98358.72;5072973;28;20520;-82
2023/01/16 04:59:07;;;;;;;10.05;7.43;;;;;;;1.03;100.00;98346.94;5072461;28;20103;-80
2023/01/16 05:01:34;;;;;;;8.10;5.65;;;;;;;1.06;100.00;98339.16;5072893;28;20095;-79
2023/01/16 05:04:11;;;;;;;10.07;6.07;;;;;;;0.99;100.00;98323.13;5072688;28;20472;-84
2023/01/16 05:06:37;;;;;;;9.55;5.97;;;;;;;0.96;100.00;98321.47;5072624;28;20391;-82
2023/01/16 05:09:04;;;;;;;8.00;5.18;;;;;;;1.04;100.00;98331.50;5072801;28;20103;-84
2023/01/16 05:11:30;;;;;;;8.77;6.10;;;;;;;0.96;100.00;98315.50;5068590;28;20541;-82
2023/01/16 05:13:56;;;;;;;12.23;7.07;;;;;;;1.04;100.00;98330.66;5072431;28;20024;-83
2023/01/16 05:16:21;;;;;;;31.35;21.63;;;;;;;0.92;100.00;98308.78;5072737;28;20024;-83
2023/01/16 05:18:46;;;;;;;23.27;15.85;;;;;;;1.02;100.00;98325.59;5072482;28;20107;-83
2023/01/16 05:21:12;;;;;;;31.27;20.65;;;;;;;0.95;100.00;98303.56;5072494;28;20111;-81
2023/01/16 05:23:37;;;;;;;26.10;21.35;;;;;;;1.01;100.00;98311.06;5071241;28;20095;-79
2023/01/16 05:26:06;;;;;;;17.15;12.32;;;;;;;0.99;100.00;98298.31;5072528;28;20372;-83
2023/01/16 05:28:32;;;;;;;24.40;19.13;;;;;;;1.04;100.00;98297.34;5072728;28;20040;-81
2023/01/16 05:30:58;;;;;;;16.65;10.65;;;;;;;1.07;100.00;98294.69;5072528;28;20025;-83
2023/01/16 05:33:23;;;;;;;17.60;15.77;;;;;;;1.03;100.00;98278.56;5071206;28;20017;-81
2023/01/16 05:35:50;;;;;;;18.23;13.85;;;;;;;1.08;100.00;98288.66;5071906;28;20360;-82
2023/01/16 05:38:16;;;;;;;11.57;10.27;;;;;;;1.08;100.00;98274.13;5072310;28;20480;-82
2023/01/16 05:40:43;;;;;;;57.15;37.22;;;;;;;1.09;100.00;98267.25;5071966;28;20016;-82
2023/01/16 05:43:08;;;;;;;26.08;18.13;;;;;;;1.08;100.00;98266.44;5072335;28;20483;-81
2023/01/16 05:45:34;;;;;;;12.50;7.40;;;;;;;1.04;100.00;98253.75;5072243;28;20055;-82
2023/01/16 05:47:59;;;;;;;8.95;7.38;;;;;;;1.04;100.00;98257.16;5070643;28;20025;-81
2023/01/16 05:50:25;;;;;;;6.97;5.75;;;;;;;1.08;100.00;98258.72;5072078;28;20033;-83
2023/01/16 05:52:50;;;;;;;8.30;4.90;;;;;;;1.00;100.00;98240.19;5071918;28;20024;-81
2023/01/16 05:55:16;;;;;;;6.50;4.65;;;;;;;1.04;100.00;98253.75;5071957;28;20024;-80
2023/01/16 05:57:41;;;;;;;8.48;5.35;;;;;;;1.00;100.00;98246.16;5071817;28;20046;-81
2023/01/16 06:00:07;;;;;;;7.18;5.03;;;;;;;0.99;100.00;98248.75;5072050;28;20158;-80
2023/01/16 06:02:33;;;;;;;10.75;7.47;;;;;;;1.02;100.00;98251.25;5071967;28;20027;-82
2023/01/16 06:04:58;;;;;;;10.77;7.50;;;;;;;1.05;100.00;98242.59;5071600;28;20033;-81
2023/01/16 06:07:24;;;;;;;10.45;6.25;;;;;;;1.07;100.00;98241.69;5072110;28;20023;-82
2023/01/16 06:09:49;;;;;;;7.13;5.97;;;;;;;1.02;100.00;98223.03;5070594;28;20488;-82
2023/01/16 06:12:15;;;;;;;10.30;5.30;;;;;;;1.06;100.00;98234.03;5070696;28;20022;-82
2023/01/16 06:14:42;;;;;;;9.85;5.53;;;;;;;0.99;100.00;98218.00;5071679;28;20391;-83
2023/01/16 06:17:07;;;;;;;10.60;5.63;;;;;;;1.05;100.00;98227.22;5071750;28;20468;-77
2023/01/16 06:19:32;;;;;;;8.55;5.20;;;;;;;1.07;100.00;98228.03;5070407;28;20031;-78
2023/01/16 06:21:58;;;;;;;9.18;5.60;;;;;;;1.02;100.00;98215.34;5071468;28;20024;-81
2023/01/16 06:24:23;;;;;;;13.85;7.00;;;;;;;1.05;100.00;98225.50;5072759;28;20472;-90
2023/01/16 06:26:48;;;;;;;18.05;11.10;;;;;;;1.05;100.00;98232.34;5070476;28;20029;-88
2023/01/16 06:29:14;;;;;;;14.63;9.57;;;;;;;1.03;100.00;98226.44;5071281;28;20511;-89
2023/01/16 06:31:39;;;;;;;18.60;10.25;;;;;;;1.04;100.00;98226.38;5070784;28;20384;-91
2023/01/16 06:34:04;;;;;;;19.02;10.00;;;;;;;1.07;100.00;98220.34;5070617;28;20465;-87
2023/01/16 06:36:30;;;;;;;15.35;9.05;;;;;;;1.05;100.00;98224.66;5070343;28;20041;-88
2023/01/16 06:38:55;;;;;;;14.55;8.65;;;;;;;0.98;100.00;98219.72;5070329;28;20498;-87
2023/01/16 06:41:21;;;;;;;34.85;20.52;;;;;;;0.98;100.00;98218.91;5069267;28;20032;-91
2023/01/16 06:43:46;;;;;;;31.05;16.08;;;;;;;0.94;100.00;98220.72;5052208;28;20064;-90
2023/01/16 06:46:11;;;;;;;29.35;17.08;;;;;;;0.90;100.00;98208.88;5054007;28;20043;-86
2023/01/16 06:48:37;;;;;;;26.85;14.65;;;;;;;0.88;100.00;98207.22;5052216;28;20055;-88
2023/01/16 06:51:02;;;;;;;118.78;39.42;;;;;;;0.87;100.00;98206.41;5052383;28;20056;-93
2023/01/16 06:53:28;;;;;;;129.90;45.33;;;;;;;0.77;100.00;98193.91;5052607;28;20032;-88
2023/01/16 06:55:53;;;;;;;95.57;37.92;;;;;;;0.88;100.00;98202.09;5052414;28;20074;-89
2023/01/16 06:58:19;;;;;;;72.65;32.92;;;;;;;0.69;100.00;98173.66;5069592;28;20413;-92
2023/01/16 07:00:50;;;;;;;30.92;14.35;;;;;;;0.87;100.00;98198.69;5053201;28;20036;-95
2023/01/16 07:03:17;;;;;;;18.50;7.72;;;;;;;0.91;100.00;98202.84;5070006;28;20078;-92
2023/01/16 07:05:45;;;;;;;13.15;6.60;;;;;;;0.99;100.00;98205.19;5055001;28;20033;-95
2023/01/16 07:13:03;;;;;;;13.20;8.02;;;;;;;1.14;100.00;98206.44;5039638;28;20028;-95
2023/01/16 07:24:02;;;;;;;20.70;13.60;;;;;;;1.14;100.00;98198.75;5034609;28;20040;-87
2023/01/16 07:26:27;;;;;;;13.20;8.73;;;;;;;1.15;100.00;98195.28;5050696;28;20368;-89
2023/01/16 07:29:14;;;;;;;11.15;6.00;;;;;;;1.13;100.00;98182.50;5233077;22;20304;-92
2023/01/16 07:31:40;;;;;;;11.68;6.68;;;;;;;1.11;100.00;98183.44;5032010;28;20124;-89
2023/01/16 07:34:05;;;;;;;8.18;5.13;;;;;;;1.09;100.00;98180.91;5032269;28;20037;-88
2023/01/16 07:36:31;;;;;;;11.48;6.57;;;;;;;1.10;100.00;98179.22;5015720;28;20043;-88
2023/01/16 07:38:56;;;;;;;13.48;8.75;;;;;;;1.09;100.00;98167.25;5015478;28;20124;-88
2023/01/16 07:41:21;;;;;;;10.68;7.60;;;;;;;1.17;100.00;98180.69;5015490;28;20468;-88
2023/01/16 07:43:47;;;;;;;14.15;10.27;;;;;;;1.16;100.00;98169.59;5015263;28;20033;-88
2023/01/16 07:46:12;;;;;;;28.25;25.27;;;;;;;1.20;100.00;98168.59;5015533;28;20384;-87
2023/01/16 07:48:38;;;;;;;26.15;23.38;;;;;;;1.17;100.00;98152.47;5031998;28;20029;-86
2023/01/16 07:51:04;;;;;;;14.10;10.70;;;;;;;1.25;100.00;98153.06;5031876;28;20037;-87
2023/01/16 07:53:30;;;;;;;9.40;5.38;;;;;;;1.34;100.00;98155.31;5031924;28;20033;-87
2023/01/16 07:55:58;;;;;;;7.45;5.05;;;;;;;1.46;100.00;98154.91;5014877;28;20021;-87
2023/01/16 07:58:23;;;;;;;9.85;6.63;;;;;;;1.58;100.00;98140.00;5015189;28;20036;-87
2023/01/16 08:00:52;;;;;;;15.35;9.20;;;;;;;1.57;100.00;98136.59;5015016;28;20038;-86
2023/01/16 08:03:17;;;;;;;15.70;9.85;;;;;;;1.52;100.00;98122.22;5015333;28;20515;-82
2023/01/16 08:05:43;;;;;;;13.65;8.50;;;;;;;1.64;100.00;98134.63;5031403;28;20112;-83
2023/01/16 08:08:09;;;;;;;13.15;8.23;;;;;;;1.58;100.00;98112.59;5014959;28;20187;-83
2023/01/16 08:10:35;;;;;;;9.45;6.07;;;;;;;1.70;100.00;98125.00;5010108;28;20409;-86
2023/01/16 08:13:00;;;;;;;8.43;5.40;;;;;;;1.74;100.00;98113.75;5011330;28;20041;-82
2023/01/16 08:15:26;;;;;;;8.82;4.85;;;;;;;1.92;100.00;98114.81;5011525;28;20112;-83
2023/01/16 08:17:51;;;;;;;13.63;7.50;;;;;;;2.14;100.00;98119.97;4995021;28;20029;-83
2023/01/16 08:20:16;;;;;;;16.17;9.15;;;;;;;2.37;100.00;98111.44;5011613;28;20034;-82
2023/01/16 08:22:46;;;;;;;10.88;7.30;;;;;;;2.55;100.00;98119.31;5011455;28;20030;-82
2023/01/16 08:25:12;;;;;;;7.40;5.22;;;;;;;2.78;99.33;98111.53;4995242;28;20033;-82
2023/01/16 08:27:38;;;;;;;5.63;4.13;;;;;;;3.02;98.01;98112.28;4994877;28;20037;-82
2023/01/16 08:30:05;;;;;;;8.23;3.72;;;;;;;3.20;96.93;98100.41;5011355;28;20042;-82
2023/01/16 08:32:30;;;;;;;10.13;4.03;;;;;;;3.44;95.11;98107.09;5010642;28;20033;-82
2023/01/16 08:34:55;;;;;;;8.60;4.53;;;;;;;3.54;94.72;98112.72;4994709;28;20021;-82
2023/01/16 08:37:21;;;;;;;7.45;4.07;;;;;;;3.48;94.32;98106.06;4972170;28;20074;-83
2023/01/16 08:39:46;;;;;;;7.93;4.95;;;;;;;3.43;93.62;98102.84;4984593;28;20122;-82
2023/01/16 08:53:08;;;;;;;9.48;4.47;;;;;;;3.47;94.18;98080.41;4972130;28;20069;-83
2023/01/16 08:55:34;;;;;;;8.93;6.30;;;;;;;3.57;93.71;98080.84;4972017;28;20030;-83
2023/01/16 08:57:59;;;;;;;7.35;5.43;;;;;;;3.51;93.45;98063.94;4971648;28;20042;-83
2023/01/16 09:00:27;;;;;;;8.27;4.53;;;;;;;3.50;92.75;98055.38;4972095;28;20029;-83
2023/01/16 09:02:53;;;;;;;6.15;4.80;;;;;;;3.50;93.10;98057.94;4971842;28;20039;-83
2023/01/16 09:05:19;;;;;;;7.30;4.28;;;;;;;3.49;93.16;98061.41;4971984;28;20031;-83
2023/01/16 09:07:44;;;;;;;6.65;4.00;;;;;;;3.44;93.40;98059.94;4977222;28;20054;-83
2023/01/16 09:10:11;;;;;;;8.43;3.75;;;;;;;3.46;92.65;98069.28;5008504;28;20033;-83
2023/01/16 09:15:20;;;;;;;7.68;3.75;;;;;;;3.49;92.45;98058.81;4993880;28;20075;-83
2023/01/16 09:17:45;;;;;;;8.48;3.95;;;;;;;3.50;92.29;98057.13;5001955;28;20045;-83
2023/01/16 09:20:11;;;;;;;12.88;4.47;;;;;;;3.49;93.06;98051.09;5003534;28;20101;-83
2023/01/16 09:22:36;;;;;;;20.20;7.32;;;;;;;3.45;93.40;98034.13;5006378;28;20044;-83
2023/01/16 09:25:02;;;;;;;35.13;11.77;;;;;;;3.54;93.01;98040.63;5010789;28;20637;-83
2023/01/16 09:27:27;;;;;;;36.30;13.50;;;;;;;3.56;92.68;98030.25;5001480;28;20088;-83
2023/01/16 09:29:53;;;;;;;30.90;12.98;;;;;;;3.59;92.64;98022.41;4998853;28;20170;-83
2023/01/16 09:32:19;;;;;;;44.63;19.15;;;;;;;3.62;92.52;98028.22;4992052;28;20046;-83
2023/01/16 09:34:45;;;;;;;25.20;10.73;;;;;;;3.61;92.50;98007.72;5006654;28;20420;-84
2023/01/16 09:37:10;;;;;;;9.75;4.88;;;;;;;3.63;92.00;98005.94;5011555;28;20231;-83
2023/01/16 09:39:37;;;;;;;9.93;5.85;;;;;;;3.65;92.18;98004.09;5012704;28;20402;-83
2023/01/16 09:45:30;;;;;;;6.35;3.83;;;;;;;3.73;91.78;98013.16;5012521;28;20079;-83
2023/01/16 09:48:12;;;;;;;9.77;4.10;;;;;;;3.80;92.24;98021.44;5012344;28;20029;-83
2023/01/16 09:50:49;;;;;;;8.10;4.25;;;;;;;3.87;92.05;98015.09;5013084;28;20037;-83
2023/01/16 09:59:08;;;;;;;13.25;4.70;;;;;;;3.97;91.46;98000.06;5012585;28;20424;-82
2023/01/16 10:01:39;;;;;;;6.47;4.05;;;;;;;4.02;91.30;97985.22;5012551;28;20026;-82
2023/01/16 10:04:16;;;;;;;;;;;;;;;4.08;91.43;97984.09;5011365;28;20029;-82
2023/01/16 10:07:00;;;;;;;7.57;4.90;;;;;;;3.98;90.66;97963.09;5012303;28;19996;-83
2023/01/16 10:09:32;;;;;;;7.30;3.88;;;;;;;4.12;90.15;97965.84;5012803;28;20453;-83
2023/01/16 10:12:04;;;;;;;7.80;3.45;;;;;;;4.15;88.53;97946.84;5012073;28;20421;-83
2023/01/16 10:14:53;;;;;;;14.40;4.57;;;;;;;4.13;88.90;97943.47;5012288;28;20373;-83
2023/01/16 10:17:36;;;;;;;18.63;4.82;;;;;;;4.23;89.74;97937.00;5012266;28;20640;-83
2023/01/16 10:20:27;;;;;;;6.35;3.70;;;;;;;4.34;89.11;97929.59;5012130;28;20053;-83
2023/01/16 10:23:11;;;;;;;;;;;;;;;4.32;89.06;97920.25;5012474;28;20457;-83
2023/01/16 10:26:04;;;;;;;7.20;4.13;;;;;;;4.39;88.67;97904.41;5012655;28;20368;-83
2023/01/16 10:28:36;;;;;;;6.78;4.18;;;;;;;4.40;88.28;97893.19;5012050;28;20037;-83
2023/01/16 10:31:10;;;;;;;6.50;4.18;;;;;;;4.44;87.16;97893.88;5012042;28;20018;-83
2023/01/16 10:33:55;;;;;;;6.45;3.45;;;;;;;4.50;86.48;97884.06;5012146;28;20109;-83
2023/01/16 10:36:26;;;;;;;9.48;4.38;;;;;;;4.58;85.48;97873.38;5012142;28;20369;-82
2023/01/16 10:38:56;;;;;;;;;;;;;;;4.58;85.56;97878.53;5011018;28;20116;-83
2023/01/16 10:50:02;;;;;;;5.88;2.78;;;;;;;4.74;84.45;97860.53;5012038;28;20180;-83
2023/01/16 10:52:27;;;;;;;6.35;2.80;;;;;;;4.78;84.46;97856.06;5011793;28;20380;-83
2023/01/16 10:54:56;;;;;;;8.35;3.35;;;;;;;4.74;84.61;97843.31;5011789;28;20022;-83
2023/01/16 10:57:21;;;;;;;6.82;3.00;;;;;;;4.83;84.74;97849.75;5013740;28;20443;-83
2023/01/16 10:59:51;;;;;;;9.15;3.20;;;;;;;4.87;84.00;97835.78;5015832;28;20097;-83
2023/01/16 11:02:29;;;;;;;6.85;3.35;;;;;;;4.86;84.64;97839.28;5015890;28;20029;-83
2023/01/16 11:04:55;;;;;;;7.07;3.28;;;;;;;4.82;84.79;97826.63;5014089;28;20018;-83
2023/01/16 11:07:22;;;;;;;3.70;2.70;;;;;;;4.97;84.00;97833.53;5015816;28;20106;-84
2023/01/16 11:09:47;;;;;;;4.63;2.95;;;;;;;4.97;84.12;97813.75;5014383;28;20525;-84
2023/01/16 11:18:29;;;;;;;6.05;3.35;;;;;;;4.98;82.81;97788.78;5015459;28;20037;-84
2023/01/16 11:20:57;;;;;;;5.93;2.83;;;;;;;4.94;82.79;97788.13;5015083;28;20025;-83
2023/01/16 11:23:26;;;;;;;6.82;2.88;;;;;;;4.97;82.26;97775.06;5015311;28;20025;-84
2023/01/16 11:25:55;;;;;;;8.73;3.33;;;;;;;4.91;82.37;97759.88;5013617;28;20048;-84
2023/01/16 11:28:31;;;;;;;5.13;2.80;;;;;;;4.90;82.99;97758.22;5013895;28;20053;-83
2023/01/16 11:31:19;;;;;;;6.22;3.10;;;;;;;4.97;82.94;97754.41;5015101;28;20052;-84
2023/01/16 11:33:49;;;;;;;6.20;3.35;;;;;;;4.98;82.91;97755.25;5013934;28;20108;-84
2023/01/16 11:36:17;;;;;;;5.57;3.22;;;;;;;4.98;82.03;97753.50;5014985;28;20026;-80
2023/01/16 11:38:45;;;;;;;7.15;2.90;;;;;;;4.96;82.34;97734.66;5015153;28;20485;-81
2023/01/16 11:41:11;;;;;;;10.23;3.53;;;;;;;4.99;82.96;97734.50;5014626;28;20026;-81
2023/01/16 11:46:41;;;;;;;4.68;3.03;;;;;;;5.13;83.33;97738.09;5015246;28;20677;-85
2023/01/16 11:49:35;;;;;;;6.57;3.72;;;;;;;5.16;83.40;97731.00;5014728;28;20425;-85
2023/01/16 11:52:03;;;;;;;7.82;3.15;;;;;;;5.14;82.22;97732.00;5013793;28;20491;-85
2023/01/16 11:54:33;;;;;;;6.93;3.45;;;;;;;5.19;81.92;97724.84;5014759;28;20025;-86
2023/01/16 11:57:09;;;;;;;5.53;3.10;;;;;;;5.29;81.12;97720.84;5013199;28;20109;-86
2023/01/16 11:59:55;;;;;;;8.10;3.47;;;;;;;5.28;80.45;97710.59;5014872;28;20076;-85
2023/01/16 12:02:59;;;;;;;8.45;3.63;;;;;;;5.37;79.67;97704.91;5014289;28;20057;-84
2023/01/16 12:08:21;;;;;;;7.75;3.25;;;;;;;5.31;78.76;97700.94;5001687;28;20072;-84
2023/01/16 12:11:15;;;;;;;10.52;4.47;;;;;;;5.33;77.71;97686.19;4984388;28;20030;-84
2023/01/16 12:14:17;;;;;;;7.60;3.78;;;;;;;5.30;77.91;97686.34;5002198;28;20041;-83
2023/01/16 12:17:18;;;;;;;4.75;2.80;;;;;;;5.29;77.47;97676.94;5001047;28;20548;-84
2023/01/16 12:19:52;;;;;;;6.15;3.75;;;;;;;5.26;78.04;97661.63;4999762;28;20033;-85
2023/01/16 12:22:24;;;;;;;5.05;2.90;;;;;;;5.32;77.04;97675.97;4991722;28;20356;-85
2023/01/16 12:24:51;;;;;;;5.57;3.20;;;;;;;5.29;77.13;97660.63;4992207;28;20049;-84
2023/01/16 12:27:29;;;;;;;8.82;4.00;;;;;;;5.37;76.79;97648.94;4991904;28;20410;-84
2023/01/16 12:30:09;;;;;;;4.68;3.10;;;;;;;5.32;76.29;97634.66;4992307;28;20046;-84
2023/01/16 12:32:48;;;;;;;7.03;3.28;;;;;;;5.31;75.76;97638.13;4991908;28;20138;-83
2023/01/16 12:35:23;;;;;;;7.57;3.72;;;;;;;5.34;75.85;97623.31;4991631;28;20035;-83
2023/01/16 12:38:15;;;;;;;9.75;4.57;;;;;;;5.35;76.77;97625.00;4991822;28;20046;-83
2023/01/16 12:43:17;;;;;;;9.93;3.90;;;;;;;5.27;76.82;97624.59;4975317;28;20026;-83
2023/01/16 12:43:58;;;;;;;12.07;5.80;;;;;;;5.35;75.42;97600.91;5011153;28;20392;-83
2023/01/16 12:46:43;;;;;;;9.38;4.28;;;;;;;5.41;76.12;97613.47;4990766;28;20018;-82
2023/01/16 12:49:17;;;;;;;12.27;5.85;;;;;;;5.35;76.98;97608.66;5000754;28;20038;-83